| time (UTC) | temp C | wind direction | speed KPH | gust KPH | rain 1hr cm | rain 24hr cm | rain mn cm | humidity % | barometer mb |
| 20260508151550 | 18 | 98 | 8.0 | 14.5 | 0.00 | 0.00 | 0.00 | 33 | 1010.7 |
| 20260508150047 | 17 | 86 | 6.4 | 14.5 | 0.00 | 0.00 | 0.00 | 35 | 1010.8 |
| 20260508144546 | 16 | 112 | 8.0 | 14.5 | 0.00 | 0.00 | 0.00 | 37 | 1011.1 |
| 20260508143103 | 15 | 128 | 3.2 | 11.3 | 0.00 | 0.00 | 0.00 | 39 | 1011.2 |
| 20260508141551 | 14 | 123 | 1.6 | 6.4 | 0.00 | 0.00 | 0.00 | 42 | 1011.1 |
| 20260508140044 | 13 | 116 | 3.2 | 9.7 | 0.00 | 0.00 | 0.00 | 43 | 1011.2 |
| 20260508134544 | 12 | 123 | 4.8 | 11.3 | 0.00 | 0.00 | 0.00 | 44 | 1011.2 |
| 20260508133043 | 11 | 126 | 6.4 | 12.9 | 0.00 | 0.00 | 0.00 | 44 | 1011.2 |
| 20260508131543 | 11 | 125 | 4.8 | 16.1 | 0.00 | 0.00 | 0.00 | 45 | 1011.1 |
| 20260508130041 | 11 | 143 | 3.2 | 6.4 | 0.00 | 0.00 | 0.00 | 44 | 1010.9 |
| 20260508124540 | 11 | 125 | 4.8 | 9.7 | 0.00 | 0.00 | 0.00 | 43 | 1010.8 |
| 20260508123045 | 11 | 135 | 3.2 | 9.7 | 0.00 | 0.00 | 0.00 | 43 | 1010.7 |
| 20260508121539 | 10 | 142 | 4.8 | 8.0 | 0.00 | 0.00 | 0.00 | 44 | 1010.7 |
| 20260508120038 | 10 | 161 | 3.2 | 11.3 | 0.00 | 0.00 | 0.00 | 45 | 1010.6 |
| 20260508114537 | 10 | 148 | 3.2 | 8.0 | 0.00 | 0.00 | 0.00 | 45 | 1010.6 |
| 20260508113034 | 11 | 132 | 3.2 | 6.4 | 0.00 | 0.00 | 0.00 | 42 | 1010.6 |
| 20260508111531 | 12 | 139 | 3.2 | 8.0 | 0.00 | 0.00 | 0.00 | 40 | 1010.5 |
| 20260508110034 | 11 | 122 | 3.2 | 6.4 | 0.00 | 0.00 | 0.00 | 40 | 1010.6 |
| 20260508104530 | 11 | 130 | 3.2 | 8.0 | 0.00 | 0.00 | 0.00 | 39 | 1010.5 |
| 20260508103039 | 12 | 150 | 3.2 | 9.7 | 0.00 | 0.00 | 0.00 | 39 | 1010.5 |
| 20260508101527 | 12 | 152 | 3.2 | 8.0 | 0.00 | 0.00 | 0.00 | 38 | 1010.5 |
| 20260508100032 | 12 | 140 | 3.2 | 12.9 | 0.00 | 0.00 | 0.00 | 39 | 1010.5 |
| 20260508094525 | 12 | 144 | 0.0 | 4.8 | 0.00 | 0.00 | 0.00 | 40 | 1010.5 |
| 20260508093030 | 12 | 143 | 4.8 | 8.0 | 0.00 | 0.00 | 0.00 | 39 | 1010.6 |
| 20260508091519 | 12 | 190 | 1.6 | 3.2 | 0.00 | 0.00 | 0.00 | 38 | 1010.6 |
| 20260508090018 | 12 | 190 | 0.0 | 6.4 | 0.00 | 0.00 | 0.00 | 38 | 1010.7 |
| 20260508084517 | 13 | 212 | 3.2 | 4.8 | 0.00 | 0.00 | 0.00 | 38 | 1010.7 |
| 20260508083014 | 13 | 213 | 0.0 | 3.2 | 0.00 | 0.00 | 0.00 | 36 | 1010.8 |
| 20260508081511 | 14 | 213 | 0.0 | 8.0 | 0.00 | 0.00 | 0.00 | 35 | 1010.9 |
| 20260508080011 | 14 | 153 | 0.0 | 4.8 | 0.00 | 0.00 | 0.00 | 34 | 1011.0 |
| 20260508074510 | 14 | 146 | 1.6 | 6.4 | 0.00 | 0.00 | 0.00 | 34 | 1011.0 |
| 20260508073009 | 14 | 144 | 3.2 | 9.7 | 0.00 | 0.00 | 0.00 | 35 | 1011.1 |
| 20260508071508 | 14 | 160 | 0.0 | 8.0 | 0.00 | 0.00 | 0.00 | 35 | 1011.4 |
| 20260508070005 | 14 | 109 | 0.0 | 6.4 | 0.00 | 0.00 | 0.00 | 35 | 1011.1 |
| 20260508064502 | 15 | 65 | 3.2 | 6.4 | 0.00 | 0.00 | 0.00 | 34 | 1011.1 |
| 20260508063100 | 16 | 55 | 4.8 | 9.7 | 0.00 | 0.00 | 0.00 | 32 | 1011.0 |
| 20260508061602 | 17 | 198 | 0.0 | 3.2 | 0.00 | 0.00 | 0.00 | 29 | 1010.9 |
| 20260508060110 | 17 | 195 | 1.6 | 8.0 | 0.00 | 0.00 | 0.00 | 29 | 1010.7 |
| 20260508054638 | 17 | 219 | 1.6 | 4.8 | 0.00 | 0.00 | 0.00 | 29 | 1011.0 |
| 20260508053055 | 17 | 200 | 0.0 | 8.0 | 0.00 | 0.00 | 0.00 | 29 | 1011.3 |
| 20260508051552 | 18 | 234 | 0.0 | 4.8 | 0.00 | 0.00 | 0.00 | 28 | 1011.3 |
| 20260508050051 | 18 | 234 | 1.6 | 4.8 | 0.00 | 0.00 | 0.00 | 28 | 1011.3 |
| 20260508044552 | 17 | 238 | 4.8 | 8.0 | 0.00 | 0.00 | 0.00 | 28 | 1011.4 |
| 20260508043057 | 18 | 238 | 1.6 | 6.4 | 0.00 | 0.00 | 0.00 | 27 | 1011.5 |
| 20260508041553 | 18 | 254 | 0.0 | 3.2 | 0.00 | 0.00 | 0.00 | 27 | 1011.5 |
| 20260508040050 | 18 | 257 | 3.2 | 11.3 | 0.00 | 0.00 | 0.00 | 27 | 1011.5 |
| 20260508034552 | 18 | 257 | 4.8 | 9.7 | 0.00 | 0.00 | 0.00 | 26 | 1011.6 |
| 20260508033050 | 19 | 260 | 0.0 | 1.6 | 0.00 | 0.00 | 0.00 | 26 | 1011.2 |
| 20260508031555 | 19 | 260 | 0.0 | 9.7 | 0.00 | 0.00 | 0.00 | 26 | 1011.4 |
| 20260508030050 | 20 | 57 | 0.0 | 8.0 | 0.00 | 0.00 | 0.00 | 26 | 1011.4 |
| 20260508024602 | 20 | 15 | 0.0 | 3.2 | 0.00 | 0.00 | 0.00 | 25 | 1011.3 |
| 20260508023048 | 20 | 15 | 0.0 | 1.6 | 0.00 | 0.00 | 0.00 | 24 | 1011.0 |
| 20260508021548 | 20 | 15 | 0.0 | 0.0 | 0.00 | 0.00 | 0.00 | 24 | 1011.0 |
| 20260508014547 | 20 | 15 | 0.0 | 0.0 | 0.00 | 0.00 | 0.00 | 24 | 1010.9 |
| 20260508013045 | 21 | 15 | 0.0 | 3.2 | 0.00 | 0.00 | 0.00 | 24 | 1011.1 |
| 20260508011545 | 21 | 15 | 1.6 | 8.0 | 0.00 | 0.00 | 0.00 | 23 | 1011.1 |
| 20260508010049 | 21 | 5 | 0.0 | 8.0 | 0.00 | 0.00 | 0.00 | 22 | 1011.2 |
| 20260508004542 | 22 | 23 | 1.6 | 12.9 | 0.00 | 0.00 | 0.00 | 22 | 1011.3 |
| 20260508003042 | 22 | 317 | 4.8 | 14.5 | 0.00 | 0.00 | 0.00 | 22 | 1011.3 |
| 20260508001541 | 22 | 5 | 6.4 | 12.9 | 0.00 | 0.00 | 0.00 | 22 | 1011.5 |
| 20260508000038 | 22 | 313 | 4.8 | 14.5 | 0.00 | 0.00 | 0.00 | 22 | 1011.5 |
| 20260507234537 | 21 | 341 | 6.4 | 12.9 | 0.00 | 0.00 | 0.00 | 22 | 1011.7 |
| 20260507233036 | 22 | 46 | 4.8 | 16.1 | 0.00 | 0.00 | 0.00 | 22 | 1011.5 |
| 20260507231542 | 22 | 88 | 3.2 | 14.5 | 0.00 | 0.00 | 0.00 | 23 | 1011.8 |
| 20260507230039 | 22 | 59 | 4.8 | 17.7 | 0.00 | 0.00 | 0.00 | 22 | 1012.1 |
| 20260507224532 | 22 | 34 | 4.8 | 11.3 | 0.00 | 0.00 | 0.00 | 22 | 1012.3 |
| 20260507223028 | 21 | 334 | 6.4 | 14.5 | 0.00 | 0.00 | 0.00 | 22 | 1012.7 |
| 20260507221526 | 21 | 33 | 8.0 | 19.3 | 0.00 | 0.00 | 0.00 | 22 | 1012.9 |
| 20260507220025 | 22 | 298 | 6.4 | 16.1 | 0.00 | 0.00 | 0.00 | 22 | 1013.2 |
| 20260507214521 | 21 | 211 | 1.6 | 14.5 | 0.00 | 0.00 | 0.00 | 22 | 1013.5 |
| 20260507213019 | 20 | 49 | 4.8 | 16.1 | 0.00 | 0.00 | 0.00 | 23 | 1014.1 |
| 20260507211524 | 20 | 15 | 3.2 | 9.7 | 0.00 | 0.00 | 0.00 | 23 | 1014.4 |
| 20260507210014 | 20 | 310 | 8.0 | 17.7 | 0.00 | 0.00 | 0.00 | 22 | 1014.9 |
| 20260507204511 | 20 | 30 | 8.0 | 14.5 | 0.00 | 0.00 | 0.00 | 22 | 1015.1 |
| 20260507203010 | 20 | 301 | 3.2 | 12.9 | 0.00 | 0.00 | 0.00 | 23 | 1015.6 |
| 20260507201510 | 20 | 59 | 9.7 | 22.5 | 0.00 | 0.00 | 0.00 | 22 | 1015.9 |
| 20260507200005 | 19 | 258 | 3.2 | 19.3 | 0.00 | 0.00 | 0.00 | 22 | 1016.2 |
| 20260507194502 | 18 | 355 | 4.8 | 14.5 | 0.00 | 0.00 | 0.00 | 22 | 1016.5 |
| 20260507193100 | 18 | 5 | 8.0 | 17.7 | 0.00 | 0.00 | 0.00 | 23 | 1016.8 |
| 20260507191559 | 18 | 36 | 3.2 | 17.7 | 0.00 | 0.00 | 0.00 | 23 | 1017.0 |
| 20260507190055 | 18 | 44 | 8.0 | 17.7 | 0.00 | 0.00 | 0.00 | 23 | 1017.5 |
| 20260507184552 | 17 | 339 | 1.6 | 19.3 | 0.00 | 0.00 | 0.00 | 24 | 1017.7 |
| 20260507183051 | 17 | 65 | 9.7 | 19.3 | 0.00 | 0.00 | 0.00 | 24 | 1018.1 |
| 20260507181546 | 17 | 339 | 9.7 | 19.3 | 0.00 | 0.00 | 0.00 | 24 | 1018.6 |
| 20260507180053 | 16 | 335 | 11.3 | 22.5 | 0.00 | 0.00 | 0.00 | 23 | 1018.8 |
| 20260507174542 | 16 | 319 | 1.6 | 19.3 | 0.00 | 0.00 | 0.00 | 23 | 1019.0 |
| 20260507173045 | 16 | 309 | 8.0 | 16.1 | 0.00 | 0.00 | 0.00 | 24 | 1019.1 |
| 20260507171544 | 15 | 346 | 3.2 | 12.9 | 0.00 | 0.00 | 0.00 | 24 | 1019.4 |
| 20260507170036 | 15 | 40 | 3.2 | 14.5 | 0.00 | 0.00 | 0.00 | 25 | 1019.6 |
| 20260507164541 | 15 | 126 | 1.6 | 16.1 | 0.00 | 0.00 | 0.00 | 25 | 1019.7 |
| 20260507163037 | 15 | 70 | 4.8 | 14.5 | 0.00 | 0.00 | 0.00 | 26 | 1020.0 |
| 20260507161539 | 14 | 101 | 6.4 | 19.3 | 0.00 | 0.00 | 0.00 | 27 | 1020.3 |
| 20260507160039 | 13 | 91 | 11.3 | 24.1 | 0.00 | 0.00 | 0.00 | 28 | 1020.2 |
| 20260507154523 | 13 | 115 | 12.9 | 25.7 | 0.00 | 0.00 | 0.00 | 30 | 1020.3 |
| 20260507153017 | 12 | 105 | 14.5 | 25.7 | 0.00 | 0.00 | 0.00 | 32 | 1020.6 |